createdAt,value
2018-09-17T00:02:27.955Z,4.03
2018-09-17T00:07:31.080Z,3.63
2018-09-17T00:12:34.159Z,4.07
2018-09-17T00:17:37.283Z,4.30
2018-09-17T00:22:40.383Z,4.23
2018-09-17T00:27:43.483Z,4.10
2018-09-17T00:32:46.599Z,4.47
2018-09-17T00:37:49.967Z,3.83
2018-09-17T00:42:53.090Z,3.80
2018-09-17T00:47:56.220Z,3.30
2018-09-17T00:52:59.326Z,3.70
2018-09-17T00:58:02.431Z,4.20
2018-09-17T01:03:05.544Z,4.30
2018-09-17T01:08:08.643Z,4.10
2018-09-17T01:13:11.707Z,4.00
2018-09-17T01:18:14.815Z,4.67
2018-09-17T01:23:17.947Z,3.13
2018-09-17T01:28:21.068Z,3.73
2018-09-17T01:33:24.167Z,3.73
2018-09-17T01:38:27.264Z,4.37
2018-09-17T01:43:30.364Z,4.73
2018-09-17T01:48:33.483Z,4.00
2018-09-17T01:53:36.601Z,5.00
2018-09-17T01:58:46.517Z,4.23
2018-09-17T02:03:49.626Z,5.07
2018-09-17T02:08:52.762Z,4.13
2018-09-17T02:13:55.871Z,4.50
2018-09-17T02:18:58.975Z,4.40
2018-09-17T02:24:02.066Z,4.37
2018-09-17T02:29:05.740Z,4.17
2018-09-17T02:34:08.860Z,6.03
2018-09-17T02:39:11.975Z,5.23
2018-09-17T02:44:15.076Z,5.40
2018-09-17T02:49:18.182Z,3.93
2018-09-17T02:54:21.299Z,4.57
2018-09-17T02:59:24.553Z,5.00
2018-09-17T03:04:27.960Z,4.53
2018-09-17T03:09:31.083Z,5.60
2018-09-17T03:14:34.203Z,4.73
2018-09-17T03:19:37.328Z,5.00
2018-09-17T03:24:40.435Z,5.37
2018-09-17T03:34:53.095Z,4.83
2018-09-17T03:39:57.795Z,5.33
2018-09-17T03:45:00.902Z,4.73
2018-09-17T03:50:04.051Z,4.13
2018-09-17T03:55:07.155Z,4.20
2018-09-17T04:00:10.247Z,4.67
2018-09-17T04:05:13.846Z,5.20
2018-09-17T04:10:16.971Z,5.13
2018-09-17T04:15:20.127Z,5.70
2018-09-17T04:20:23.314Z,5.00
2018-09-17T04:25:26.684Z,5.07
2018-09-17T04:30:29.774Z,4.60
2018-09-17T04:35:32.856Z,5.60
2018-09-17T04:40:35.955Z,5.83
2018-09-17T04:45:39.047Z,5.60
2018-09-17T04:50:42.142Z,6.40
2018-09-17T04:55:45.258Z,5.10
2018-09-17T05:00:48.631Z,5.23
2018-09-17T05:05:51.747Z,5.60
2018-09-17T05:10:54.932Z,5.20
2018-09-17T05:15:58.031Z,5.30
2018-09-17T05:21:01.138Z,5.40
2018-09-17T05:26:04.226Z,5.23
2018-09-17T05:31:07.323Z,5.77
2018-09-17T05:36:10.437Z,4.13
2018-09-17T05:41:13.559Z,4.60
2018-09-17T05:46:16.643Z,5.87
2018-09-17T05:51:19.754Z,5.87
2018-09-17T05:56:22.865Z,5.47
2018-09-17T06:01:25.966Z,4.60
2018-09-17T06:06:29.058Z,5.50
2018-09-17T06:11:32.152Z,5.23
2018-09-17T06:16:35.255Z,6.17
2018-09-17T06:21:38.385Z,4.03
2018-09-17T06:26:41.594Z,5.63
2018-09-17T06:31:44.622Z,5.13
2018-09-17T06:36:47.719Z,5.67
2018-09-17T06:41:50.803Z,5.80
2018-09-17T06:46:53.911Z,6.30
2018-09-17T06:51:57.010Z,5.93
2018-09-17T06:57:00.148Z,5.60
2018-09-17T07:02:03.258Z,6.60
2018-09-17T07:07:06.385Z,4.30
2018-09-17T07:12:09.477Z,5.90
2018-09-17T07:17:12.589Z,5.27
2018-09-17T07:22:15.786Z,4.30
2018-09-17T07:27:18.905Z,4.93
2018-09-17T07:32:22.270Z,4.90
2018-09-17T07:37:25.438Z,5.47
2018-09-17T07:42:28.643Z,3.93
2018-09-17T07:47:31.735Z,3.30
2018-09-17T07:52:36.101Z,3.13
2018-09-17T07:57:39.228Z,4.07
2018-09-17T08:02:42.326Z,3.60
2018-09-17T08:07:45.442Z,3.47
2018-09-17T08:12:49.068Z,4.30
2018-09-17T08:17:52.680Z,4.23
2018-09-17T08:22:55.861Z,3.07
2018-09-17T08:27:58.968Z,5.17
2018-09-17T08:33:02.054Z,3.80
2018-09-17T08:38:05.177Z,3.40
2018-09-17T08:43:08.243Z,2.60
2018-09-17T08:48:11.371Z,3.43
2018-09-17T08:53:14.536Z,3.10
2018-09-17T08:58:23.058Z,2.73
2018-09-17T09:03:29.503Z,2.90
2018-09-17T09:08:32.615Z,2.97
2018-09-17T09:13:41.191Z,2.20
2018-09-17T09:18:44.336Z,2.13
2018-09-17T09:23:47.483Z,3.07
2018-09-17T09:28:50.599Z,2.30
2018-09-17T09:33:53.731Z,2.00
2018-09-17T09:38:56.861Z,2.30
2018-09-17T09:43:59.979Z,2.03
2018-09-17T09:49:03.079Z,2.20
2018-09-17T09:54:06.275Z,2.20
2018-09-17T09:59:09.388Z,1.77
2018-09-17T10:04:18.034Z,1.60
2018-09-17T10:10:26.279Z,2.00
2018-09-17T10:15:39.670Z,1.90
2018-09-17T10:20:42.755Z,1.80
2018-09-17T10:25:45.906Z,1.60
2018-09-17T10:30:49.196Z,2.00
2018-09-17T10:35:52.296Z,1.90
2018-09-17T10:40:55.415Z,1.13
2018-09-17T10:45:58.547Z,1.97
2018-09-17T10:51:01.651Z,1.40
2018-09-17T10:56:04.773Z,2.00
2018-09-17T11:01:07.888Z,1.80
2018-09-17T11:06:11.006Z,1.60
2018-09-17T11:11:14.095Z,1.53
2018-09-17T11:16:17.189Z,1.90
2018-09-17T11:21:20.292Z,1.60
2018-09-17T11:26:23.409Z,1.87
2018-09-17T11:31:26.611Z,1.70
2018-09-17T11:36:29.828Z,1.60
2018-09-17T11:41:32.966Z,1.83
2018-09-17T11:51:45.623Z,1.60
2018-09-17T11:56:48.749Z,1.57
2018-09-17T12:01:57.355Z,1.70
2018-09-17T12:07:05.980Z,2.97
2018-09-17T12:12:09.081Z,1.90
2018-09-17T12:17:12.177Z,1.63
2018-09-17T12:22:15.296Z,2.40
2018-09-17T12:27:18.399Z,1.50
2018-09-17T12:32:21.514Z,1.57
2018-09-17T12:37:24.614Z,1.77
2018-09-17T12:42:27.754Z,1.43
2018-09-17T12:47:30.843Z,1.63
2018-09-17T12:52:33.946Z,1.60
2018-09-17T12:57:37.354Z,1.60
2018-09-17T13:02:40.494Z,1.70
2018-09-17T13:07:43.604Z,1.60
2018-09-17T13:12:46.828Z,1.97
2018-09-17T13:17:49.951Z,1.77
2018-09-17T13:22:53.080Z,1.70
2018-09-17T13:27:56.186Z,1.80
2018-09-17T13:33:00.053Z,2.20
2018-09-17T13:38:03.159Z,1.87
2018-09-17T13:43:06.295Z,2.20
2018-09-17T13:48:09.380Z,2.10
2018-09-17T13:53:12.532Z,1.60
2018-09-17T13:58:15.615Z,1.70
2018-09-17T14:03:18.740Z,1.93
2018-09-17T14:08:21.819Z,1.47
2018-09-17T14:13:31.432Z,1.80
2018-09-17T14:18:34.609Z,2.00
2018-09-17T14:23:37.711Z,2.00
2018-09-17T14:28:40.848Z,1.90
2018-09-17T14:33:43.951Z,1.63
2018-09-17T14:38:47.013Z,1.93
2018-09-17T14:43:50.146Z,2.23
2018-09-17T14:48:53.277Z,2.20
2018-09-17T14:53:56.477Z,2.17
2018-09-17T14:58:59.493Z,1.40
2018-09-17T15:04:02.641Z,2.00
2018-09-17T15:09:07.454Z,1.80
2018-09-17T15:14:11.424Z,2.07
2018-09-17T15:19:14.432Z,1.50
2018-09-17T15:24:17.536Z,1.77
2018-09-17T15:29:20.643Z,1.60
2018-09-17T15:34:23.909Z,2.20
2018-09-17T15:39:26.940Z,1.70
2018-09-17T15:44:30.123Z,2.03
2018-09-17T15:49:33.155Z,1.90
2018-09-17T15:54:36.288Z,2.13
2018-09-17T15:59:39.410Z,1.60
2018-09-17T16:04:42.520Z,2.30
2018-09-17T16:09:45.640Z,2.20
2018-09-17T16:14:48.757Z,1.47
2018-09-17T16:19:51.935Z,2.13
2018-09-17T16:24:54.956Z,2.50
2018-09-17T16:29:58.044Z,2.20
2018-09-17T16:35:01.131Z,2.13
2018-09-17T16:40:04.310Z,2.07
2018-09-17T16:45:07.419Z,2.50
2018-09-17T16:50:10.648Z,1.80
2018-09-17T16:55:13.775Z,2.40
2018-09-17T17:00:16.873Z,2.37
2018-09-17T17:05:26.514Z,2.40
2018-09-17T17:10:29.647Z,3.10
2018-09-17T17:15:32.771Z,2.60
2018-09-17T17:20:35.873Z,2.37
2018-09-17T17:25:39.419Z,2.37
2018-09-17T17:30:42.538Z,2.60
2018-09-17T17:35:46.119Z,2.60
2018-09-17T17:40:49.261Z,1.97
2018-09-17T17:45:52.369Z,2.70
2018-09-17T17:50:55.502Z,2.10
2018-09-17T17:55:58.617Z,2.30
2018-09-17T18:01:02.150Z,2.53
2018-09-17T18:06:05.170Z,2.87
2018-09-17T18:11:08.275Z,5.60
2018-09-17T18:16:11.391Z,3.70
2018-09-17T18:21:14.633Z,2.80
2018-09-17T18:26:17.747Z,2.67
2018-09-17T18:31:20.874Z,2.57
2018-09-17T18:36:24.036Z,2.57
2018-09-17T18:41:27.086Z,2.70
2018-09-17T18:46:30.179Z,2.53
2018-09-17T18:51:33.331Z,2.17
2018-09-17T18:56:36.531Z,2.53
2018-09-17T19:01:39.604Z,3.00
2018-09-17T19:06:42.721Z,2.27
2018-09-17T19:11:45.823Z,2.77
2018-09-17T19:16:54.242Z,3.10
2018-09-17T19:22:03.042Z,2.83
2018-09-17T19:27:05.955Z,4.23
2018-09-17T19:32:09.079Z,5.00
2018-09-17T19:37:17.680Z,4.47
2018-09-17T19:42:20.977Z,6.03
2018-09-17T19:47:23.963Z,3.97
2018-09-17T19:52:27.068Z,4.33
2018-09-17T19:57:35.752Z,3.33
2018-09-17T20:02:39.799Z,3.57
2018-09-17T20:07:42.914Z,4.00
2018-09-17T20:12:46.041Z,4.17
2018-09-17T20:17:55.722Z,4.50
2018-09-17T20:22:58.847Z,5.17
2018-09-17T20:28:01.923Z,4.53
2018-09-17T20:33:05.107Z,4.00
2018-09-17T20:38:08.212Z,4.43
2018-09-17T20:43:11.343Z,4.23
2018-09-17T20:48:14.526Z,4.67
2018-09-17T20:53:17.610Z,4.10
2018-09-17T20:58:20.758Z,3.47
2018-09-17T21:03:23.922Z,3.40
2018-09-17T21:08:27.000Z,3.40
2018-09-17T21:13:30.195Z,3.10
2018-09-17T21:18:33.241Z,3.40
2018-09-17T21:23:36.329Z,3.97
2018-09-17T21:28:39.863Z,3.43
2018-09-17T21:33:42.958Z,3.60
2018-09-17T21:38:46.047Z,3.63
2018-09-17T21:43:49.164Z,3.47
2018-09-17T21:48:52.287Z,3.30
2018-09-17T21:53:55.404Z,3.90
2018-09-17T21:58:58.527Z,3.90
2018-09-17T22:04:01.670Z,3.50
2018-09-17T22:09:06.668Z,3.30
2018-09-17T22:14:09.771Z,4.03
2018-09-17T22:19:12.868Z,4.00
2018-09-17T22:24:15.992Z,4.40
2018-09-17T22:29:19.076Z,3.60
2018-09-17T22:34:22.177Z,4.20
2018-09-17T22:39:25.331Z,4.00
2018-09-17T22:44:28.502Z,4.60
2018-09-17T22:49:31.596Z,4.40
2018-09-17T22:54:34.699Z,3.90
2018-09-17T22:59:37.815Z,4.30
2018-09-17T23:04:40.899Z,4.27
2018-09-17T23:09:44.024Z,3.67
2018-09-17T23:14:47.148Z,4.00
2018-09-17T23:19:50.252Z,4.53
2018-09-17T23:24:53.362Z,3.80
2018-09-17T23:29:56.493Z,4.10
2018-09-17T23:34:59.586Z,4.40
2018-09-17T23:40:09.259Z,4.83
2018-09-17T23:45:12.363Z,3.53
2018-09-17T23:50:15.447Z,5.00
2018-09-17T23:55:18.555Z,5.37
